sensor_id;sensor_type;location;lat;lon;timestamp;P1;durP1;ratioP1;P2;durP2;ratioP2
8048;SDS011;20935;42.660;23.342;2024-03-17T00:01:47;26.40;;;19.27;;
8048;SDS011;20935;42.660;23.342;2024-03-17T00:04:34;31.50;;;19.23;;
8048;SDS011;20935;42.660;23.342;2024-03-17T00:07:20;26.40;;;19.83;;
8048;SDS011;20935;42.660;23.342;2024-03-17T00:10:07;29.37;;;19.90;;
8048;SDS011;20935;42.660;23.342;2024-03-17T00:12:55;30.50;;;21.83;;
8048;SDS011;20935;42.660;23.342;2024-03-17T00:15:44;32.43;;;21.10;;
8048;SDS011;20935;42.660;23.342;2024-03-17T00:18:30;36.43;;;20.00;;
8048;SDS011;20935;42.660;23.342;2024-03-17T00:21:16;28.30;;;19.87;;
8048;SDS011;20935;42.660;23.342;2024-03-17T00:24:03;29.13;;;21.37;;
8048;SDS011;20935;42.660;23.342;2024-03-17T00:26:49;32.43;;;21.93;;
8048;SDS011;20935;42.660;23.342;2024-03-17T00:29:35;34.93;;;21.70;;
8048;SDS011;20935;42.660;23.342;2024-03-17T00:32:26;31.23;;;21.00;;
8048;SDS011;20935;42.660;23.342;2024-03-17T00:35:16;30.87;;;19.80;;
8048;SDS011;20935;42.660;23.342;2024-03-17T00:38:07;33.47;;;21.10;;
8048;SDS011;20935;42.660;23.342;2024-03-17T00:40:56;28.83;;;19.23;;
8048;SDS011;20935;42.660;23.342;2024-03-17T00:43:43;32.07;;;20.87;;
8048;SDS011;20935;42.660;23.342;2024-03-17T00:46:29;32.63;;;21.57;;
8048;SDS011;20935;42.660;23.342;2024-03-17T00:49:17;36.83;;;21.57;;
8048;SDS011;20935;42.660;23.342;2024-03-17T00:52:03;30.20;;;21.50;;
8048;SDS011;20935;42.660;23.342;2024-03-17T00:54:49;33.50;;;21.47;;
8048;SDS011;20935;42.660;23.342;2024-03-17T00:57:35;31.33;;;21.10;;
8048;SDS011;20935;42.660;23.342;2024-03-17T01:00:22;28.20;;;19.17;;
8048;SDS011;20935;42.660;23.342;2024-03-17T01:03:08;28.27;;;20.40;;
8048;SDS011;20935;42.660;23.342;2024-03-17T01:05:56;25.77;;;19.20;;
8048;SDS011;20935;42.660;23.342;2024-03-17T01:08:42;31.70;;;20.10;;
8048;SDS011;20935;42.660;23.342;2024-03-17T01:11:29;28.10;;;19.17;;
8048;SDS011;20935;42.660;23.342;2024-03-17T01:14:15;27.07;;;20.50;;
8048;SDS011;20935;42.660;23.342;2024-03-17T01:17:02;27.30;;;20.57;;
8048;SDS011;20935;42.660;23.342;2024-03-17T01:19:50;31.57;;;21.30;;
8048;SDS011;20935;42.660;23.342;2024-03-17T01:22:38;32.10;;;21.03;;
8048;SDS011;20935;42.660;23.342;2024-03-17T01:25:25;31.93;;;20.17;;
8048;SDS011;20935;42.660;23.342;2024-03-17T01:28:13;33.50;;;21.93;;
8048;SDS011;20935;42.660;23.342;2024-03-17T01:30:59;29.73;;;20.17;;
8048;SDS011;20935;42.660;23.342;2024-03-17T01:33:46;29.27;;;19.60;;
8048;SDS011;20935;42.660;23.342;2024-03-17T01:36:32;32.13;;;20.90;;
8048;SDS011;20935;42.660;23.342;2024-03-17T01:39:20;29.80;;;19.67;;
8048;SDS011;20935;42.660;23.342;2024-03-17T01:42:06;29.07;;;19.50;;
8048;SDS011;20935;42.660;23.342;2024-03-17T01:44:53;28.33;;;20.27;;
8048;SDS011;20935;42.660;23.342;2024-03-17T01:47:39;31.00;;;20.17;;
8048;SDS011;20935;42.660;23.342;2024-03-17T01:50:28;30.70;;;21.40;;
8048;SDS011;20935;42.660;23.342;2024-03-17T01:53:15;28.23;;;19.73;;
8048;SDS011;20935;42.660;23.342;2024-03-17T01:56:03;30.27;;;20.50;;
8048;SDS011;20935;42.660;23.342;2024-03-17T01:58:49;34.27;;;20.93;;
8048;SDS011;20935;42.660;23.342;2024-03-17T02:01:37;32.00;;;21.00;;
8048;SDS011;20935;42.660;23.342;2024-03-17T02:04:23;31.67;;;21.70;;
8048;SDS011;20935;42.660;23.342;2024-03-17T02:07:10;31.00;;;20.83;;
8048;SDS011;20935;42.660;23.342;2024-03-17T02:09:56;30.80;;;20.23;;
8048;SDS011;20935;42.660;23.342;2024-03-17T02:12:45;32.67;;;20.27;;
8048;SDS011;20935;42.660;23.342;2024-03-17T02:15:33;31.10;;;22.20;;
8048;SDS011;20935;42.660;23.342;2024-03-17T02:18:19;32.97;;;20.17;;
8048;SDS011;20935;42.660;23.342;2024-03-17T02:21:08;31.60;;;20.20;;
8048;SDS011;20935;42.660;23.342;2024-03-17T02:23:56;30.50;;;21.27;;
8048;SDS011;20935;42.660;23.342;2024-03-17T02:26:43;30.57;;;20.77;;
8048;SDS011;20935;42.660;23.342;2024-03-17T02:29:29;31.87;;;21.30;;
8048;SDS011;20935;42.660;23.342;2024-03-17T02:32:15;30.73;;;20.80;;
8048;SDS011;20935;42.660;23.342;2024-03-17T02:35:03;30.67;;;20.10;;
8048;SDS011;20935;42.660;23.342;2024-03-17T02:37:50;31.53;;;20.87;;
8048;SDS011;20935;42.660;23.342;2024-03-17T02:40:38;30.00;;;20.27;;
8048;SDS011;20935;42.660;23.342;2024-03-17T02:43:24;28.23;;;20.33;;
8048;SDS011;20935;42.660;23.342;2024-03-17T02:46:11;32.80;;;21.10;;
8048;SDS011;20935;42.660;23.342;2024-03-17T02:49:01;30.73;;;21.40;;
8048;SDS011;20935;42.660;23.342;2024-03-17T02:51:48;29.17;;;20.63;;
8048;SDS011;20935;42.660;23.342;2024-03-17T02:54:35;34.07;;;21.43;;
8048;SDS011;20935;42.660;23.342;2024-03-17T02:57:24;33.73;;;20.90;;
8048;SDS011;20935;42.660;23.342;2024-03-17T03:00:14;31.90;;;21.23;;
8048;SDS011;20935;42.660;23.342;2024-03-17T03:03:01;29.93;;;20.57;;
8048;SDS011;20935;42.660;23.342;2024-03-17T03:05:48;33.93;;;20.87;;
8048;SDS011;20935;42.660;23.342;2024-03-17T03:08:35;34.83;;;21.57;;
8048;SDS011;20935;42.660;23.342;2024-03-17T03:11:24;30.73;;;20.70;;
8048;SDS011;20935;42.660;23.342;2024-03-17T03:14:12;33.13;;;22.30;;
8048;SDS011;20935;42.660;23.342;2024-03-17T03:16:59;31.93;;;21.20;;
8048;SDS011;20935;42.660;23.342;2024-03-17T03:19:46;30.33;;;20.73;;
8048;SDS011;20935;42.660;23.342;2024-03-17T03:22:33;30.73;;;20.40;;
8048;SDS011;20935;42.660;23.342;2024-03-17T03:25:23;30.57;;;21.33;;
8048;SDS011;20935;42.660;23.342;2024-03-17T03:28:09;33.00;;;22.93;;
8048;SDS011;20935;42.660;23.342;2024-03-17T03:30:58;33.00;;;22.13;;
8048;SDS011;20935;42.660;23.342;2024-03-17T03:33:44;32.43;;;22.50;;
8048;SDS011;20935;42.660;23.342;2024-03-17T03:36:31;33.73;;;23.00;;
8048;SDS011;20935;42.660;23.342;2024-03-17T03:39:18;33.50;;;21.83;;
8048;SDS011;20935;42.660;23.342;2024-03-17T03:42:05;33.87;;;22.70;;
8048;SDS011;20935;42.660;23.342;2024-03-17T03:44:52;33.50;;;20.90;;
8048;SDS011;20935;42.660;23.342;2024-03-17T03:47:41;31.50;;;21.27;;
8048;SDS011;20935;42.660;23.342;2024-03-17T03:50:27;28.63;;;19.53;;
8048;SDS011;20935;42.660;23.342;2024-03-17T03:53:14;29.67;;;20.43;;
8048;SDS011;20935;42.660;23.342;2024-03-17T03:56:04;31.20;;;20.97;;
8048;SDS011;20935;42.660;23.342;2024-03-17T03:58:52;31.60;;;20.03;;
8048;SDS011;20935;42.660;23.342;2024-03-17T04:01:39;29.33;;;19.73;;
8048;SDS011;20935;42.660;23.342;2024-03-17T04:04:27;31.53;;;21.83;;
8048;SDS011;20935;42.660;23.342;2024-03-17T04:07:14;32.77;;;22.30;;
8048;SDS011;20935;42.660;23.342;2024-03-17T04:10:02;29.87;;;19.90;;
8048;SDS011;20935;42.660;23.342;2024-03-17T04:12:50;36.07;;;21.83;;
8048;SDS011;20935;42.660;23.342;2024-03-17T04:15:37;40.03;;;22.13;;
8048;SDS011;20935;42.660;23.342;2024-03-17T04:18:24;33.67;;;22.60;;
8048;SDS011;20935;42.660;23.342;2024-03-17T04:21:12;33.83;;;22.17;;
8048;SDS011;20935;42.660;23.342;2024-03-17T04:23:59;37.57;;;23.60;;
8048;SDS011;20935;42.660;23.342;2024-03-17T04:26:46;34.67;;;21.47;;
8048;SDS011;20935;42.660;23.342;2024-03-17T04:29:33;37.10;;;22.20;;
8048;SDS011;20935;42.660;23.342;2024-03-17T04:32:21;33.20;;;21.93;;
8048;SDS011;20935;42.660;23.342;2024-03-17T04:35:15;29.80;;;21.07;;
8048;SDS011;20935;42.660;23.342;2024-03-17T04:38:03;31.53;;;21.43;;
8048;SDS011;20935;42.660;23.342;2024-03-17T04:40:51;31.00;;;21.17;;
8048;SDS011;20935;42.660;23.342;2024-03-17T04:43:42;35.13;;;21.33;;
8048;SDS011;20935;42.660;23.342;2024-03-17T04:46:29;30.23;;;21.23;;
8048;SDS011;20935;42.660;23.342;2024-03-17T04:49:16;31.87;;;22.00;;
8048;SDS011;20935;42.660;23.342;2024-03-17T04:52:03;34.03;;;21.40;;
8048;SDS011;20935;42.660;23.342;2024-03-17T04:54:51;35.67;;;23.10;;
8048;SDS011;20935;42.660;23.342;2024-03-17T04:57:38;32.03;;;21.03;;
8048;SDS011;20935;42.660;23.342;2024-03-17T05:00:27;32.63;;;20.83;;
8048;SDS011;20935;42.660;23.342;2024-03-17T05:03:14;31.53;;;21.17;;
8048;SDS011;20935;42.660;23.342;2024-03-17T05:06:01;30.47;;;20.97;;
8048;SDS011;20935;42.660;23.342;2024-03-17T05:08:48;29.83;;;21.53;;
8048;SDS011;20935;42.660;23.342;2024-03-17T05:11:36;32.90;;;22.33;;
8048;SDS011;20935;42.660;23.342;2024-03-17T05:14:23;31.43;;;22.63;;
8048;SDS011;20935;42.660;23.342;2024-03-17T05:17:11;37.10;;;22.90;;
8048;SDS011;20935;42.660;23.342;2024-03-17T05:19:58;31.33;;;21.37;;
8048;SDS011;20935;42.660;23.342;2024-03-17T05:22:45;34.57;;;22.23;;
8048;SDS011;20935;42.660;23.342;2024-03-17T05:25:33;31.73;;;21.93;;
8048;SDS011;20935;42.660;23.342;2024-03-17T05:28:24;33.87;;;20.97;;
8048;SDS011;20935;42.660;23.342;2024-03-17T05:31:11;33.10;;;22.47;;
8048;SDS011;20935;42.660;23.342;2024-03-17T05:34:00;32.20;;;21.70;;
8048;SDS011;20935;42.660;23.342;2024-03-17T05:36:47;31.00;;;21.63;;
8048;SDS011;20935;42.660;23.342;2024-03-17T05:39:34;34.30;;;23.07;;
8048;SDS011;20935;42.660;23.342;2024-03-17T05:42:20;33.03;;;21.67;;
8048;SDS011;20935;42.660;23.342;2024-03-17T05:45:09;31.20;;;23.20;;
8048;SDS011;20935;42.660;23.342;2024-03-17T05:47:56;33.50;;;20.67;;
8048;SDS011;20935;42.660;23.342;2024-03-17T05:50:43;31.37;;;21.90;;
8048;SDS011;20935;42.660;23.342;2024-03-17T05:53:33;34.93;;;24.00;;
8048;SDS011;20935;42.660;23.342;2024-03-17T05:56:25;32.53;;;23.90;;
8048;SDS011;20935;42.660;23.342;2024-03-17T05:59:12;36.60;;;22.47;;
8048;SDS011;20935;42.660;23.342;2024-03-17T06:02:00;33.07;;;22.60;;
8048;SDS011;20935;42.660;23.342;2024-03-17T06:04:47;31.63;;;23.00;;
8048;SDS011;20935;42.660;23.342;2024-03-17T06:07:34;32.73;;;21.27;;
8048;SDS011;20935;42.660;23.342;2024-03-17T06:10:20;30.70;;;21.90;;
8048;SDS011;20935;42.660;23.342;2024-03-17T06:13:12;29.73;;;21.70;;
8048;SDS011;20935;42.660;23.342;2024-03-17T06:16:02;28.77;;;21.73;;
8048;SDS011;20935;42.660;23.342;2024-03-17T06:18:50;31.70;;;22.17;;
8048;SDS011;20935;42.660;23.342;2024-03-17T06:21:40;28.13;;;20.97;;
8048;SDS011;20935;42.660;23.342;2024-03-17T06:24:26;32.63;;;21.93;;
8048;SDS011;20935;42.660;23.342;2024-03-17T06:27:15;28.87;;;21.60;;
8048;SDS011;20935;42.660;23.342;2024-03-17T06:30:05;32.17;;;21.37;;
8048;SDS011;20935;42.660;23.342;2024-03-17T06:32:52;30.50;;;19.97;;
8048;SDS011;20935;42.660;23.342;2024-03-17T06:35:40;28.17;;;19.43;;
8048;SDS011;20935;42.660;23.342;2024-03-17T06:38:27;26.93;;;18.97;;
8048;SDS011;20935;42.660;23.342;2024-03-17T06:41:14;30.30;;;21.00;;
8048;SDS011;20935;42.660;23.342;2024-03-17T06:44:04;25.73;;;19.87;;
8048;SDS011;20935;42.660;23.342;2024-03-17T06:46:52;28.40;;;20.67;;
8048;SDS011;20935;42.660;23.342;2024-03-17T06:49:39;28.53;;;20.70;;
8048;SDS011;20935;42.660;23.342;2024-03-17T06:52:27;28.90;;;20.77;;
8048;SDS011;20935;42.660;23.342;2024-03-17T06:55:14;27.33;;;19.83;;
8048;SDS011;20935;42.660;23.342;2024-03-17T06:58:00;28.20;;;20.03;;
8048;SDS011;20935;42.660;23.342;2024-03-17T07:00:54;26.90;;;19.33;;
8048;SDS011;20935;42.660;23.342;2024-03-17T07:03:41;27.20;;;19.50;;
8048;SDS011;20935;42.660;23.342;2024-03-17T07:06:28;26.70;;;19.33;;
8048;SDS011;20935;42.660;23.342;2024-03-17T07:09:16;24.03;;;18.50;;
8048;SDS011;20935;42.660;23.342;2024-03-17T07:12:03;23.23;;;18.30;;
8048;SDS011;20935;42.660;23.342;2024-03-17T07:14:51;26.80;;;19.17;;
8048;SDS011;20935;42.660;23.342;2024-03-17T07:17:38;29.33;;;19.30;;
8048;SDS011;20935;42.660;23.342;2024-03-17T07:20:25;29.87;;;19.50;;
8048;SDS011;20935;42.660;23.342;2024-03-17T07:23:12;27.57;;;20.60;;
8048;SDS011;20935;42.660;23.342;2024-03-17T07:26:00;23.17;;;19.23;;
8048;SDS011;20935;42.660;23.342;2024-03-17T07:28:47;29.97;;;19.67;;
8048;SDS011;20935;42.660;23.342;2024-03-17T07:31:34;26.67;;;19.00;;
8048;SDS011;20935;42.660;23.342;2024-03-17T07:34:21;29.13;;;18.93;;
8048;SDS011;20935;42.660;23.342;2024-03-17T07:37:08;26.90;;;19.27;;
8048;SDS011;20935;42.660;23.342;2024-03-17T07:39:55;25.87;;;18.63;;
8048;SDS011;20935;42.660;23.342;2024-03-17T07:42:43;27.73;;;19.40;;
8048;SDS011;20935;42.660;23.342;2024-03-17T07:45:30;30.67;;;20.33;;
8048;SDS011;20935;42.660;23.342;2024-03-17T07:48:17;26.27;;;18.80;;
8048;SDS011;20935;42.660;23.342;2024-03-17T07:51:05;25.67;;;19.33;;
8048;SDS011;20935;42.660;23.342;2024-03-17T07:53:52;29.20;;;18.33;;
8048;SDS011;20935;42.660;23.342;2024-03-17T07:56:39;25.07;;;16.33;;
8048;SDS011;20935;42.660;23.342;2024-03-17T07:59:27;22.13;;;15.63;;
8048;SDS011;20935;42.660;23.342;2024-03-17T08:02:14;19.70;;;14.83;;
8048;SDS011;20935;42.660;23.342;2024-03-17T08:05:01;25.37;;;15.70;;
8048;SDS011;20935;42.660;23.342;2024-03-17T08:07:49;19.50;;;15.40;;
8048;SDS011;20935;42.660;23.342;2024-03-17T08:10:38;21.20;;;15.23;;
8048;SDS011;20935;42.660;23.342;2024-03-17T08:13:25;22.80;;;13.87;;
8048;SDS011;20935;42.660;23.342;2024-03-17T08:16:15;19.13;;;12.87;;
8048;SDS011;20935;42.660;23.342;2024-03-17T08:19:02;20.33;;;14.40;;
8048;SDS011;20935;42.660;23.342;2024-03-17T08:21:49;20.17;;;13.57;;
8048;SDS011;20935;42.660;23.342;2024-03-17T08:24:36;18.90;;;13.30;;
8048;SDS011;20935;42.660;23.342;2024-03-17T08:27:23;15.93;;;12.63;;
8048;SDS011;20935;42.660;23.342;2024-03-17T08:30:10;14.00;;;11.23;;
8048;SDS011;20935;42.660;23.342;2024-03-17T08:32:59;16.33;;;11.17;;
8048;SDS011;20935;42.660;23.342;2024-03-17T08:35:53;14.70;;;11.27;;
8048;SDS011;20935;42.660;23.342;2024-03-17T08:38:40;14.50;;;11.33;;
8048;SDS011;20935;42.660;23.342;2024-03-17T08:41:29;16.00;;;12.20;;
8048;SDS011;20935;42.660;23.342;2024-03-17T08:44:16;17.20;;;12.10;;
8048;SDS011;20935;42.660;23.342;2024-03-17T08:47:03;16.90;;;11.73;;
8048;SDS011;20935;42.660;23.342;2024-03-17T08:49:52;17.30;;;11.47;;
8048;SDS011;20935;42.660;23.342;2024-03-17T08:52:44;17.00;;;11.17;;
8048;SDS011;20935;42.660;23.342;2024-03-17T08:55:31;15.40;;;11.87;;
8048;SDS011;20935;42.660;23.342;2024-03-17T08:58:18;17.67;;;13.83;;
8048;SDS011;20935;42.660;23.342;2024-03-17T09:01:07;17.33;;;13.07;;
8048;SDS011;20935;42.660;23.342;2024-03-17T09:03:53;17.37;;;13.20;;
8048;SDS011;20935;42.660;23.342;2024-03-17T09:06:43;16.90;;;13.33;;
8048;SDS011;20935;42.660;23.342;2024-03-17T09:09:30;16.87;;;13.57;;
8048;SDS011;20935;42.660;23.342;2024-03-17T09:12:17;20.73;;;14.93;;
8048;SDS011;20935;42.660;23.342;2024-03-17T09:15:04;20.60;;;14.23;;
8048;SDS011;20935;42.660;23.342;2024-03-17T09:17:51;20.20;;;13.80;;
8048;SDS011;20935;42.660;23.342;2024-03-17T09:20:38;18.53;;;13.50;;
8048;SDS011;20935;42.660;23.342;2024-03-17T09:23:26;15.33;;;12.07;;
8048;SDS011;20935;42.660;23.342;2024-03-17T09:26:13;16.90;;;13.43;;
8048;SDS011;20935;42.660;23.342;2024-03-17T09:29:01;12.97;;;9.80;;
8048;SDS011;20935;42.660;23.342;2024-03-17T09:31:49;15.67;;;11.67;;
8048;SDS011;20935;42.660;23.342;2024-03-17T09:34:37;16.83;;;13.57;;
8048;SDS011;20935;42.660;23.342;2024-03-17T09:37:24;12.90;;;11.13;;
8048;SDS011;20935;42.660;23.342;2024-03-17T09:40:14;15.43;;;11.23;;
8048;SDS011;20935;42.660;23.342;2024-03-17T09:43:01;13.90;;;10.97;;
8048;SDS011;20935;42.660;23.342;2024-03-17T09:45:48;12.43;;;10.13;;
8048;SDS011;20935;42.660;23.342;2024-03-17T09:48:35;12.07;;;8.73;;
8048;SDS011;20935;42.660;23.342;2024-03-17T09:51:26;12.00;;;8.73;;
8048;SDS011;20935;42.660;23.342;2024-03-17T09:54:16;9.90;;;8.10;;
8048;SDS011;20935;42.660;23.342;2024-03-17T09:57:06;11.77;;;7.47;;
8048;SDS011;20935;42.660;23.342;2024-03-17T09:59:55;8.50;;;7.10;;
8048;SDS011;20935;42.660;23.342;2024-03-17T10:02:43;9.43;;;6.20;;
8048;SDS011;20935;42.660;23.342;2024-03-17T10:05:31;7.93;;;5.90;;
8048;SDS011;20935;42.660;23.342;2024-03-17T10:08:20;7.90;;;7.10;;
8048;SDS011;20935;42.660;23.342;2024-03-17T10:11:06;7.93;;;7.13;;
8048;SDS011;20935;42.660;23.342;2024-03-17T10:13:59;8.87;;;7.57;;
8048;SDS011;20935;42.660;23.342;2024-03-17T10:16:45;8.60;;;7.23;;
8048;SDS011;20935;42.660;23.342;2024-03-17T10:19:30;7.53;;;6.20;;
8048;SDS011;20935;42.660;23.342;2024-03-17T10:22:15;7.63;;;6.63;;
8048;SDS011;20935;42.660;23.342;2024-03-17T10:25:00;9.83;;;6.80;;
8048;SDS011;20935;42.660;23.342;2024-03-17T10:27:45;9.60;;;6.67;;
8048;SDS011;20935;42.660;23.342;2024-03-17T10:30:31;7.40;;;6.30;;
8048;SDS011;20935;42.660;23.342;2024-03-17T10:33:21;7.77;;;5.90;;
8048;SDS011;20935;42.660;23.342;2024-03-17T10:36:15;8.03;;;5.90;;
8048;SDS011;20935;42.660;23.342;2024-03-17T10:39:02;8.40;;;5.93;;
8048;SDS011;20935;42.660;23.342;2024-03-17T10:41:47;5.70;;;4.70;;
8048;SDS011;20935;42.660;23.342;2024-03-17T10:44:32;6.27;;;4.97;;
8048;SDS011;20935;42.660;23.342;2024-03-17T10:47:23;5.07;;;4.57;;
8048;SDS011;20935;42.660;23.342;2024-03-17T10:50:09;6.57;;;4.83;;
8048;SDS011;20935;42.660;23.342;2024-03-17T10:53:01;6.40;;;5.17;;
8048;SDS011;20935;42.660;23.342;2024-03-17T10:55:46;6.97;;;4.47;;
8048;SDS011;20935;42.660;23.342;2024-03-17T10:58:33;5.30;;;3.73;;
8048;SDS011;20935;42.660;23.342;2024-03-17T11:01:19;3.70;;;3.40;;
8048;SDS011;20935;42.660;23.342;2024-03-17T11:04:06;4.13;;;3.37;;
8048;SDS011;20935;42.660;23.342;2024-03-17T11:06:53;4.00;;;3.17;;
8048;SDS011;20935;42.660;23.342;2024-03-17T11:09:42;6.10;;;4.70;;
8048;SDS011;20935;42.660;23.342;2024-03-17T11:12:41;4.90;;;4.40;;
8048;SDS011;20935;42.660;23.342;2024-03-17T11:15:39;5.40;;;4.47;;
8048;SDS011;20935;42.660;23.342;2024-03-17T11:18:37;4.50;;;4.10;;
8048;SDS011;20935;42.660;23.342;2024-03-17T11:21:24;5.37;;;4.40;;
8048;SDS011;20935;42.660;23.342;2024-03-17T11:24:18;7.90;;;5.37;;
8048;SDS011;20935;42.660;23.342;2024-03-17T11:33:07;6.33;;;5.73;;
8048;SDS011;20935;42.660;23.342;2024-03-17T11:36:34;6.20;;;5.60;;
8048;SDS011;20935;42.660;23.342;2024-03-17T11:39:21;6.00;;;5.40;;
8048;SDS011;20935;42.660;23.342;2024-03-17T11:42:07;6.73;;;5.17;;
8048;SDS011;20935;42.660;23.342;2024-03-17T11:44:59;5.57;;;5.00;;
8048;SDS011;20935;42.660;23.342;2024-03-17T11:47:43;6.30;;;4.73;;
8048;SDS011;20935;42.660;23.342;2024-03-17T11:50:28;4.33;;;3.93;;
8048;SDS011;20935;42.660;23.342;2024-03-17T11:53:14;5.63;;;4.83;;
8048;SDS011;20935;42.660;23.342;2024-03-17T11:55:59;6.13;;;4.50;;
8048;SDS011;20935;42.660;23.342;2024-03-17T11:58:47;5.10;;;4.60;;
8048;SDS011;20935;42.660;23.342;2024-03-17T12:01:32;5.33;;;4.20;;
8048;SDS011;20935;42.660;23.342;2024-03-17T12:04:17;4.67;;;4.10;;
8048;SDS011;20935;42.660;23.342;2024-03-17T12:07:03;4.63;;;4.13;;
8048;SDS011;20935;42.660;23.342;2024-03-17T12:09:54;5.53;;;5.00;;
8048;SDS011;20935;42.660;23.342;2024-03-17T12:12:40;5.37;;;4.67;;
8048;SDS011;20935;42.660;23.342;2024-03-17T12:15:24;4.97;;;4.47;;
8048;SDS011;20935;42.660;23.342;2024-03-17T12:18:19;5.60;;;4.80;;
8048;SDS011;20935;42.660;23.342;2024-03-17T12:21:03;5.73;;;4.73;;
8048;SDS011;20935;42.660;23.342;2024-03-17T12:23:48;6.60;;;5.27;;
8048;SDS011;20935;42.660;23.342;2024-03-17T12:26:34;7.07;;;5.30;;
8048;SDS011;20935;42.660;23.342;2024-03-17T12:29:23;7.23;;;5.37;;
8048;SDS011;20935;42.660;23.342;2024-03-17T12:32:10;5.90;;;4.90;;
8048;SDS011;20935;42.660;23.342;2024-03-17T12:34:57;6.07;;;4.70;;
8048;SDS011;20935;42.660;23.342;2024-03-17T12:37:43;7.50;;;4.90;;
8048;SDS011;20935;42.660;23.342;2024-03-17T12:40:28;5.70;;;5.20;;
8048;SDS011;20935;42.660;23.342;2024-03-17T12:43:14;6.97;;;5.23;;
8048;SDS011;20935;42.660;23.342;2024-03-17T12:45:59;6.43;;;5.10;;
8048;SDS011;20935;42.660;23.342;2024-03-17T12:48:43;5.70;;;4.97;;
8048;SDS011;20935;42.660;23.342;2024-03-17T12:51:28;6.10;;;4.93;;
8048;SDS011;20935;42.660;23.342;2024-03-17T12:54:12;6.07;;;5.10;;
8048;SDS011;20935;42.660;23.342;2024-03-17T12:57:03;5.20;;;4.70;;
8048;SDS011;20935;42.660;23.342;2024-03-17T13:00:17;7.47;;;5.23;;
8048;SDS011;20935;42.660;23.342;2024-03-17T13:03:23;7.60;;;6.33;;
8048;SDS011;20935;42.660;23.342;2024-03-17T13:06:13;7.20;;;5.90;;
8048;SDS011;20935;42.660;23.342;2024-03-17T13:09:09;7.00;;;6.07;;
8048;SDS011;20935;42.660;23.342;2024-03-17T13:11:56;6.73;;;5.90;;
8048;SDS011;20935;42.660;23.342;2024-03-17T13:14:43;6.10;;;5.50;;
8048;SDS011;20935;42.660;23.342;2024-03-17T13:17:31;10.60;;;5.33;;
8048;SDS011;20935;42.660;23.342;2024-03-17T13:20:19;8.50;;;5.60;;
8048;SDS011;20935;42.660;23.342;2024-03-17T13:23:06;5.40;;;4.90;;
8048;SDS011;20935;42.660;23.342;2024-03-17T13:25:54;6.97;;;5.93;;
8048;SDS011;20935;42.660;23.342;2024-03-17T13:28:40;7.00;;;6.13;;
8048;SDS011;20935;42.660;23.342;2024-03-17T13:31:27;5.17;;;4.63;;
8048;SDS011;20935;42.660;23.342;2024-03-17T13:34:21;8.13;;;6.20;;
8048;SDS011;20935;42.660;23.342;2024-03-17T13:37:08;8.63;;;6.70;;
8048;SDS011;20935;42.660;23.342;2024-03-17T13:39:55;11.03;;;7.33;;
8048;SDS011;20935;42.660;23.342;2024-03-17T13:42:42;8.90;;;7.00;;
8048;SDS011;20935;42.660;23.342;2024-03-17T13:45:30;7.87;;;6.93;;
8048;SDS011;20935;42.660;23.342;2024-03-17T13:48:17;9.47;;;5.90;;
8048;SDS011;20935;42.660;23.342;2024-03-17T13:51:06;7.57;;;6.77;;
8048;SDS011;20935;42.660;23.342;2024-03-17T13:53:54;9.23;;;6.43;;
8048;SDS011;20935;42.660;23.342;2024-03-17T13:56:41;8.17;;;6.83;;
8048;SDS011;20935;42.660;23.342;2024-03-17T13:59:28;9.37;;;7.13;;
8048;SDS011;20935;42.660;23.342;2024-03-17T14:02:15;8.47;;;6.90;;
8048;SDS011;20935;42.660;23.342;2024-03-17T14:05:02;9.50;;;7.70;;
8048;SDS011;20935;42.660;23.342;2024-03-17T14:07:54;8.67;;;7.40;;
8048;SDS011;20935;42.660;23.342;2024-03-17T14:10:42;8.83;;;7.03;;
8048;SDS011;20935;42.660;23.342;2024-03-17T14:13:29;9.73;;;6.70;;
8048;SDS011;20935;42.660;23.342;2024-03-17T14:16:16;7.60;;;6.23;;
8048;SDS011;20935;42.660;23.342;2024-03-17T14:19:05;8.43;;;6.83;;
8048;SDS011;20935;42.660;23.342;2024-03-17T14:21:53;9.73;;;6.53;;
8048;SDS011;20935;42.660;23.342;2024-03-17T14:24:41;6.97;;;6.23;;
8048;SDS011;20935;42.660;23.342;2024-03-17T14:27:28;8.40;;;6.87;;
8048;SDS011;20935;42.660;23.342;2024-03-17T14:30:16;10.50;;;7.17;;
8048;SDS011;20935;42.660;23.342;2024-03-17T14:33:03;8.63;;;6.90;;
8048;SDS011;20935;42.660;23.342;2024-03-17T14:35:56;7.10;;;6.30;;
8048;SDS011;20935;42.660;23.342;2024-03-17T14:38:43;7.53;;;6.67;;
8048;SDS011;20935;42.660;23.342;2024-03-17T14:41:31;9.77;;;7.03;;
8048;SDS011;20935;42.660;23.342;2024-03-17T14:44:19;8.60;;;6.87;;
8048;SDS011;20935;42.660;23.342;2024-03-17T14:47:05;10.97;;;7.20;;
8048;SDS011;20935;42.660;23.342;2024-03-17T14:49:52;7.53;;;6.63;;
8048;SDS011;20935;42.660;23.342;2024-03-17T14:52:39;10.43;;;7.20;;
8048;SDS011;20935;42.660;23.342;2024-03-17T14:55:27;9.70;;;6.97;;
8048;SDS011;20935;42.660;23.342;2024-03-17T14:58:15;9.23;;;7.20;;
8048;SDS011;20935;42.660;23.342;2024-03-17T15:01:02;8.20;;;6.63;;
8048;SDS011;20935;42.660;23.342;2024-03-17T15:03:49;10.30;;;7.77;;
8048;SDS011;20935;42.660;23.342;2024-03-17T15:06:36;10.83;;;7.47;;
8048;SDS011;20935;42.660;23.342;2024-03-17T15:09:23;10.93;;;7.80;;
8048;SDS011;20935;42.660;23.342;2024-03-17T15:12:10;9.53;;;7.70;;
8048;SDS011;20935;42.660;23.342;2024-03-17T15:14:58;11.40;;;9.17;;
8048;SDS011;20935;42.660;23.342;2024-03-17T15:17:45;9.40;;;7.53;;
8048;SDS011;20935;42.660;23.342;2024-03-17T15:20:34;10.97;;;8.50;;
8048;SDS011;20935;42.660;23.342;2024-03-17T15:23:21;13.17;;;9.03;;
8048;SDS011;20935;42.660;23.342;2024-03-17T15:26:08;8.77;;;7.73;;
8048;SDS011;20935;42.660;23.342;2024-03-17T15:28:55;11.27;;;8.10;;
8048;SDS011;20935;42.660;23.342;2024-03-17T15:31:44;10.73;;;8.43;;
8048;SDS011;20935;42.660;23.342;2024-03-17T15:34:34;9.40;;;7.80;;
8048;SDS011;20935;42.660;23.342;2024-03-17T15:37:22;10.67;;;7.37;;
8048;SDS011;20935;42.660;23.342;2024-03-17T15:40:09;11.57;;;7.67;;
8048;SDS011;20935;42.660;23.342;2024-03-17T15:43:01;8.77;;;7.47;;
8048;SDS011;20935;42.660;23.342;2024-03-17T15:45:49;11.00;;;7.80;;
8048;SDS011;20935;42.660;23.342;2024-03-17T15:48:38;8.90;;;7.63;;
8048;SDS011;20935;42.660;23.342;2024-03-17T15:51:24;15.53;;;7.50;;
8048;SDS011;20935;42.660;23.342;2024-03-17T15:54:11;8.53;;;7.13;;
8048;SDS011;20935;42.660;23.342;2024-03-17T15:56:58;8.43;;;6.67;;
8048;SDS011;20935;42.660;23.342;2024-03-17T15:59:45;10.57;;;8.00;;
8048;SDS011;20935;42.660;23.342;2024-03-17T16:02:32;9.70;;;7.83;;
8048;SDS011;20935;42.660;23.342;2024-03-17T16:05:21;10.90;;;8.70;;
8048;SDS011;20935;42.660;23.342;2024-03-17T16:08:09;11.77;;;7.87;;
8048;SDS011;20935;42.660;23.342;2024-03-17T16:10:57;8.70;;;7.40;;
8048;SDS011;20935;42.660;23.342;2024-03-17T16:13:44;9.77;;;7.80;;
8048;SDS011;20935;42.660;23.342;2024-03-17T16:16:33;9.63;;;7.93;;
8048;SDS011;20935;42.660;23.342;2024-03-17T16:19:19;9.83;;;8.63;;
8048;SDS011;20935;42.660;23.342;2024-03-17T16:22:09;12.93;;;9.67;;
8048;SDS011;20935;42.660;23.342;2024-03-17T16:24:56;12.73;;;9.93;;
8048;SDS011;20935;42.660;23.342;2024-03-17T16:27:43;13.03;;;10.77;;
8048;SDS011;20935;42.660;23.342;2024-03-17T16:30:30;12.63;;;9.80;;
8048;SDS011;20935;42.660;23.342;2024-03-17T16:33:18;13.73;;;11.17;;
8048;SDS011;20935;42.660;23.342;2024-03-17T16:36:05;13.77;;;10.57;;
8048;SDS011;20935;42.660;23.342;2024-03-17T16:38:55;16.10;;;10.97;;